createdAt,value
2023-02-18T00:01:14.704Z,99529.59
2023-02-18T00:04:16.161Z,99538.28
2023-02-18T00:07:17.616Z,99537.38
2023-02-18T00:10:19.080Z,99545.22
2023-02-18T00:13:20.548Z,99542.56
2023-02-18T00:16:22.091Z,99533.91
2023-02-18T00:19:23.588Z,99537.31
2023-02-18T00:22:25.070Z,99545.06
2023-02-18T00:25:26.538Z,99532.06
2023-02-18T00:28:28.066Z,99528.66
2023-02-18T00:31:31.472Z,99529.38
2023-02-18T00:34:32.979Z,99529.44
2023-02-18T00:37:35.466Z,99523.34
2023-02-18T00:40:40.431Z,99538.19
2023-02-18T00:43:42.104Z,99539.97
2023-02-18T00:46:43.617Z,99522.44
2023-02-18T00:49:45.121Z,99533.88
2023-02-18T00:52:46.594Z,99527.81
2023-02-18T00:55:48.129Z,99526.91
2023-02-18T00:58:49.952Z,99522.00
2023-02-18T01:01:51.433Z,99526.94
2023-02-18T01:04:52.975Z,99524.19
2023-02-18T01:07:54.598Z,99529.28
2023-02-18T01:10:57.111Z,99520.59
2023-02-18T01:13:58.584Z,99514.59
2023-02-18T01:17:00.092Z,99503.22
2023-02-18T01:20:01.573Z,99516.28
2023-02-18T01:23:03.337Z,99500.63
2023-02-18T01:26:05.117Z,99491.00
2023-02-18T01:29:06.764Z,99486.59
2023-02-18T01:32:08.465Z,99487.47
2023-02-18T01:35:14.728Z,99482.41
2023-02-18T01:38:16.249Z,99485.84
2023-02-18T01:41:17.695Z,99482.25
2023-02-18T01:44:21.505Z,99484.94
2023-02-18T01:47:23.318Z,99485.88
2023-02-18T01:50:24.783Z,99505.06
2023-02-18T01:53:28.900Z,99498.09
2023-02-18T01:56:48.179Z,99492.00
2023-02-18T01:59:53.184Z,99493.66
2023-02-18T02:02:54.633Z,99495.41
2023-02-18T02:05:56.139Z,99491.91
2023-02-18T02:08:58.748Z,99479.72
2023-02-18T02:12:18.436Z,99487.56
2023-02-18T02:15:49.447Z,99488.47
2023-02-18T02:19:13.811Z,99487.63
2023-02-18T02:22:33.644Z,99485.97
2023-02-18T02:25:38.252Z,99492.91
2023-02-18T02:29:15.345Z,99487.63
2023-02-18T02:32:54.590Z,99488.66
2023-02-18T02:36:16.222Z,99484.28
2023-02-18T02:39:27.808Z,99479.88
2023-02-18T02:42:56.810Z,99487.72
2023-02-18T02:46:03.338Z,99485.00
2023-02-18T02:49:19.278Z,99471.09
2023-02-18T02:52:24.452Z,99478.19
2023-02-18T02:55:26.142Z,99485.09
2023-02-18T02:58:27.700Z,99485.06
2023-02-18T03:02:00.141Z,99470.22
2023-02-18T03:05:26.501Z,99476.47
2023-02-18T03:08:30.677Z,99478.06
2023-02-18T03:11:35.653Z,99475.44
2023-02-18T03:14:52.035Z,99461.50
2023-02-18T03:18:11.448Z,99456.31
2023-02-18T03:21:29.033Z,99447.53
2023-02-18T03:24:32.696Z,99439.75
2023-02-18T03:27:43.305Z,99452.78
2023-02-18T03:30:48.564Z,99437.88
2023-02-18T03:33:53.046Z,99428.25
2023-02-18T03:36:54.480Z,99423.09
2023-02-18T03:39:56.872Z,99409.94
2023-02-18T03:42:58.692Z,99409.16
2023-02-18T03:46:00.198Z,99402.13
2023-02-18T03:49:01.707Z,99405.66
2023-02-18T03:52:03.174Z,99410.97
2023-02-18T03:55:05.196Z,99402.25
2023-02-18T03:58:06.667Z,99404.91
2023-02-18T04:01:08.151Z,99396.09
2023-02-18T04:04:09.717Z,99398.75
2023-02-18T04:07:11.203Z,99391.75
2023-02-18T04:10:12.673Z,99387.41
2023-02-18T04:13:14.231Z,99377.81
2023-02-18T04:16:15.753Z,99385.66
2023-02-18T04:19:17.199Z,99382.16
2023-02-18T04:22:18.730Z,99389.19
2023-02-18T04:25:20.262Z,99394.44
2023-02-18T04:28:21.822Z,99391.75
2023-02-18T04:31:23.360Z,99392.63
2023-02-18T04:34:25.430Z,99403.94
2023-02-18T04:37:26.938Z,99403.97
2023-02-18T04:40:30.618Z,99407.38
2023-02-18T04:43:32.175Z,99406.63
2023-02-18T04:46:33.708Z,99414.56
2023-02-18T04:49:35.289Z,99415.50
2023-02-18T04:52:36.753Z,99419.81
2023-02-18T04:55:38.198Z,99420.66
2023-02-18T04:58:39.779Z,99418.06
2023-02-18T05:01:41.322Z,99429.41
2023-02-18T05:04:42.850Z,99418.88
2023-02-18T05:07:44.365Z,99414.59
2023-02-18T05:10:45.810Z,99422.41
2023-02-18T05:13:47.292Z,99405.88
2023-02-18T05:16:48.757Z,99414.56
2023-02-18T05:19:50.234Z,99417.19
2023-02-18T05:22:51.709Z,99413.72
2023-02-18T05:25:53.150Z,99406.66
2023-02-18T05:28:54.693Z,99405.75
2023-02-18T05:31:56.194Z,99403.97
2023-02-18T05:34:57.688Z,99409.31
2023-02-18T05:37:59.195Z,99397.97
2023-02-18T05:41:00.667Z,99388.41
2023-02-18T05:44:20.639Z,99395.38
2023-02-18T05:47:22.123Z,99391.00
2023-02-18T05:50:23.595Z,99388.34
2023-02-18T05:53:25.050Z,99386.56
2023-02-18T05:56:26.490Z,99385.69
2023-02-18T05:59:27.952Z,99378.75
2023-02-18T06:02:29.508Z,99384.88
2023-02-18T06:05:31.012Z,99383.13
2023-02-18T06:08:32.514Z,99383.09
2023-02-18T06:11:34.223Z,99392.78
2023-02-18T06:14:35.681Z,99392.72
2023-02-18T06:17:37.152Z,99388.41
2023-02-18T06:20:39.616Z,99391.09
2023-02-18T06:23:41.104Z,99393.63
2023-02-18T06:26:42.582Z,99391.06
2023-02-18T06:29:44.150Z,99389.19
2023-02-18T06:32:45.654Z,99396.19
2023-02-18T06:36:02.320Z,99392.72
2023-02-18T06:39:04.657Z,99396.28
2023-02-18T06:42:06.103Z,99403.34
2023-02-18T06:45:07.849Z,99410.25
2023-02-18T06:48:10.001Z,99411.91
2023-02-18T06:51:11.468Z,99403.22
2023-02-18T06:54:12.924Z,99412.84
2023-02-18T06:57:14.369Z,99407.66
2023-02-18T07:00:16.038Z,99404.06
2023-02-18T07:03:17.527Z,99398.88
2023-02-18T07:06:19.014Z,99410.34
2023-02-18T07:09:20.469Z,99417.31
2023-02-18T07:12:22.229Z,99413.97
2023-02-18T07:15:24.398Z,99420.88
2023-02-18T07:18:25.921Z,99423.41
2023-02-18T07:21:27.370Z,99422.66
2023-02-18T07:24:28.823Z,99422.66
2023-02-18T07:27:30.437Z,99423.53
2023-02-18T07:30:31.965Z,99417.38
2023-02-18T07:33:33.517Z,99424.34
2023-02-18T07:36:35.026Z,99420.72
2023-02-18T07:39:36.564Z,99430.41
2023-02-18T07:42:38.032Z,99425.19
2023-02-18T07:45:39.548Z,99435.69
2023-02-18T07:48:41.010Z,99431.34
2023-02-18T07:51:42.492Z,99429.59
2023-02-18T07:54:45.002Z,99428.69
2023-02-18T07:58:00.908Z,99422.56
2023-02-18T08:01:10.209Z,99419.78
2023-02-18T08:04:11.744Z,99419.03
2023-02-18T08:07:14.704Z,99426.94
2023-02-18T08:10:16.170Z,99420.88
2023-02-18T08:13:17.693Z,99418.19
2023-02-18T08:16:20.087Z,99425.19
2023-02-18T08:19:27.658Z,99420.03
2023-02-18T08:22:32.463Z,99427.81
2023-02-18T08:25:34.087Z,99425.22
2023-02-18T08:28:35.771Z,99427.00
2023-02-18T08:31:37.438Z,99426.97
2023-02-18T08:34:39.303Z,99428.75
2023-02-18T08:37:52.586Z,99428.78
2023-02-18T08:41:02.985Z,99430.56
2023-02-18T08:44:04.726Z,99428.78
2023-02-18T08:48:15.992Z,99437.56
2023-02-18T08:50:28.207Z,99424.50
2023-02-18T08:53:29.799Z,99430.66
2023-02-18T08:56:32.609Z,99428.94
2023-02-18T08:59:34.278Z,99430.69
2023-02-18T09:02:35.811Z,99443.81
2023-02-18T09:05:38.916Z,99442.91
2023-02-18T09:08:40.494Z,99441.16
2023-02-18T09:11:42.047Z,99445.53
2023-02-18T09:14:43.593Z,99442.06
2023-02-18T09:17:45.200Z,99439.47
2023-02-18T09:20:46.709Z,99440.38
2023-02-18T09:23:48.244Z,99422.88
2023-02-18T09:26:49.771Z,99429.03
2023-02-18T09:29:51.520Z,99419.41
2023-02-18T09:32:53.053Z,99422.03
2023-02-18T09:35:54.591Z,99431.66
2023-02-18T09:38:56.127Z,99421.22
2023-02-18T09:41:58.652Z,99423.84
2023-02-18T09:45:07.397Z,99413.44
2023-02-18T09:48:08.893Z,99422.22
2023-02-18T09:51:13.231Z,99418.69
2023-02-18T09:54:17.105Z,99426.56
2023-02-18T09:57:23.096Z,99421.31
2023-02-18T10:00:34.586Z,99422.19
2023-02-18T10:03:36.529Z,99419.59
2023-02-18T10:06:38.059Z,99412.56
2023-02-18T10:09:42.000Z,99417.78
2023-02-18T10:12:43.733Z,99417.84
2023-02-18T10:15:45.596Z,99416.13
2023-02-18T10:18:51.429Z,99425.72
2023-02-18T10:21:53.254Z,99421.34
2023-02-18T10:24:57.656Z,99430.06
2023-02-18T10:27:59.185Z,99427.47
2023-02-18T10:31:03.662Z,99438.81
2023-02-18T10:34:05.107Z,99439.72
2023-02-18T10:37:27.009Z,99465.03
2023-02-18T10:41:13.758Z,99451.03
2023-02-18T10:44:32.468Z,99451.03
2023-02-18T10:47:52.509Z,99450.19
2023-02-18T10:50:53.995Z,99442.34
2023-02-18T10:53:55.683Z,99444.09
2023-02-18T10:57:00.310Z,99442.38
2023-02-18T11:00:27.093Z,99451.16
2023-02-18T11:03:45.604Z,99440.63
2023-02-18T11:06:48.516Z,99460.72
2023-02-18T11:09:52.496Z,99451.97
2023-02-18T11:13:05.018Z,99458.97
2023-02-18T11:16:06.983Z,99459.81
2023-02-18T11:19:34.294Z,99444.19
2023-02-18T11:22:39.761Z,99438.03
2023-02-18T11:25:41.426Z,99446.59
2023-02-18T11:28:49.576Z,99440.91
2023-02-18T11:31:52.742Z,99440.47
2023-02-18T11:34:54.304Z,99432.47
2023-02-18T11:37:57.349Z,99433.50
2023-02-18T11:41:04.277Z,99417.72
2023-02-18T11:44:08.015Z,99416.84
2023-02-18T11:47:12.469Z,99415.22
2023-02-18T11:50:20.887Z,99409.13
2023-02-18T11:53:35.611Z,99404.78
2023-02-18T11:56:37.177Z,99402.13
2023-02-18T11:59:39.566Z,99399.50
2023-02-18T12:02:41.158Z,99389.84
2023-02-18T12:05:42.812Z,99381.09
2023-02-18T12:09:05.683Z,99375.88
2023-02-18T12:12:12.143Z,99386.34
2023-02-18T12:15:19.287Z,99374.97
2023-02-18T12:18:42.889Z,99367.91
2023-02-18T12:22:01.713Z,99366.19
2023-02-18T12:25:25.753Z,99381.09
2023-02-18T12:28:43.979Z,99367.09
2023-02-18T12:32:11.669Z,99367.19
2023-02-18T12:35:23.824Z,99366.28
2023-02-18T12:38:42.547Z,99363.63
2023-02-18T12:41:59.175Z,99365.38
2023-02-18T12:45:35.699Z,99361.94
2023-02-18T12:48:49.729Z,99354.03
2023-02-18T12:52:12.543Z,99358.41
2023-02-18T12:55:27.791Z,99353.09
2023-02-18T12:58:47.481Z,99347.03
2023-02-18T13:02:02.182Z,99361.91
2023-02-18T13:05:21.757Z,99358.44
2023-02-18T13:08:51.193Z,99354.06
2023-02-18T13:12:11.569Z,99340.00
2023-02-18T13:15:27.804Z,99354.94
2023-02-18T13:18:35.303Z,99347.06
2023-02-18T13:21:36.880Z,99338.34
2023-02-18T13:24:43.577Z,99339.13
2023-02-18T13:28:00.543Z,99324.28
2023-02-18T13:31:15.232Z,99318.22
2023-02-18T13:34:28.711Z,99314.72
2023-02-18T13:37:33.149Z,99318.22
2023-02-18T13:40:34.659Z,99320.84
2023-02-18T13:43:36.413Z,99320.88
2023-02-18T13:46:54.256Z,99322.63
2023-02-18T13:49:55.802Z,99317.41
2023-02-18T13:53:03.343Z,99315.66
2023-02-18T13:56:22.185Z,99305.97
2023-02-18T13:59:26.110Z,99312.13
2023-02-18T14:02:32.140Z,99297.22
2023-02-18T14:05:40.675Z,99288.50
2023-02-18T14:08:42.354Z,99292.88
2023-02-18T14:11:48.623Z,99297.19
2023-02-18T14:14:50.646Z,99290.25
2023-02-18T14:18:14.103Z,99281.44
2023-02-18T14:21:15.412Z,99273.56
2023-02-18T14:24:16.890Z,99267.38
2023-02-18T14:27:18.321Z,99272.75
2023-02-18T14:30:29.224Z,99273.63
2023-02-18T14:33:35.542Z,99260.50
2023-02-18T14:36:42.823Z,99279.72
2023-02-18T14:40:03.143Z,99276.22
2023-02-18T14:43:31.906Z,99270.97
2023-02-18T14:46:35.949Z,99276.25
2023-02-18T14:49:43.472Z,99270.97
2023-02-18T14:52:56.375Z,99280.63
2023-02-18T14:56:05.036Z,99275.41
2023-02-18T14:59:06.584Z,99270.16
2023-02-18T15:02:27.374Z,99264.06
2023-02-18T15:05:32.999Z,99254.44
2023-02-18T15:08:37.338Z,99265.81
2023-02-18T15:11:45.837Z,99256.16
2023-02-18T15:14:47.906Z,99252.59
2023-02-18T15:17:49.473Z,99247.34
2023-02-18T15:20:50.989Z,99242.97
2023-02-18T15:23:52.454Z,99240.41
2023-02-18T15:26:56.119Z,99239.50
2023-02-18T15:30:03.811Z,99238.66
2023-02-18T15:33:10.304Z,99242.16
2023-02-18T15:36:13.238Z,99237.81
2023-02-18T15:39:14.682Z,99233.41
2023-02-18T15:42:36.057Z,99231.69
2023-02-18T15:45:39.166Z,99225.56
2023-02-18T15:48:44.475Z,99226.44
2023-02-18T15:51:45.916Z,99218.59
2023-02-18T15:54:47.362Z,99224.75
2023-02-18T15:57:48.838Z,99221.31
2023-02-18T16:00:52.463Z,99216.09
2023-02-18T16:03:54.465Z,99216.13
2023-02-18T16:06:56.470Z,99228.38
2023-02-18T16:10:33.106Z,99225.75
2023-02-18T16:13:34.732Z,99231.00
2023-02-18T16:16:37.066Z,99223.16
2023-02-18T16:20:03.508Z,99224.88
2023-02-18T16:23:13.189Z,99227.47
2023-02-18T16:26:17.614Z,99217.03
2023-02-18T16:29:24.045Z,99215.28
2023-02-18T16:32:25.565Z,99219.66
2023-02-18T16:35:30.653Z,99215.31
2023-02-18T16:38:34.298Z,99215.31
2023-02-18T16:41:35.784Z,99216.19
2023-02-18T16:44:37.597Z,99216.19
2023-02-18T16:47:39.700Z,99219.69
2023-02-18T16:50:41.128Z,99216.19
2023-02-18T16:53:42.762Z,99217.94
2023-02-18T16:56:44.232Z,99224.03
2023-02-18T16:59:45.682Z,99216.19
2023-02-18T17:02:49.315Z,99217.94
2023-02-18T17:05:50.853Z,99217.06
2023-02-18T17:08:52.343Z,99220.53
2023-02-18T17:11:54.677Z,99214.44
2023-02-18T17:14:56.271Z,99225.78
2023-02-18T17:17:59.347Z,99221.41
2023-02-18T17:21:00.845Z,99220.56
2023-02-18T17:24:02.326Z,99217.06
2023-02-18T17:27:03.792Z,99217.06
2023-02-18T17:30:05.549Z,99222.28
2023-02-18T17:33:07.139Z,99221.38
2023-02-18T17:36:10.001Z,99217.91
2023-02-18T17:39:13.608Z,99222.25
2023-02-18T17:42:15.133Z,99224.00
2023-02-18T17:45:22.851Z,99224.84
2023-02-18T17:48:24.718Z,99227.47
2023-02-18T17:51:27.478Z,99230.97
2023-02-18T17:54:28.967Z,99233.56
2023-02-18T17:57:30.444Z,99230.03
2023-02-18T18:00:34.009Z,99244.00
2023-02-18T18:03:35.441Z,99244.00
2023-02-18T18:06:36.910Z,99235.25
2023-02-18T18:09:38.369Z,99243.97
2023-02-18T18:12:39.825Z,99250.09
2023-02-18T18:15:42.655Z,99250.97
2023-02-18T18:18:44.309Z,99240.50
2023-02-18T18:21:46.999Z,99250.06
2023-02-18T18:24:49.857Z,99237.84
2023-02-18T18:27:52.420Z,99246.59
2023-02-18T18:30:54.945Z,99252.69
2023-02-18T18:33:57.217Z,99246.50
2023-02-18T18:36:58.594Z,99242.19
2023-02-18T18:40:00.056Z,99250.94
2023-02-18T18:43:01.727Z,99249.19
2023-02-18T18:46:03.215Z,99247.41
2023-02-18T18:49:04.701Z,99243.06
2023-02-18T18:52:06.176Z,99238.69
2023-02-18T18:55:24.200Z,99240.44
2023-02-18T18:58:25.726Z,99237.78
2023-02-18T19:01:29.115Z,99242.97
2023-02-18T19:04:30.721Z,99238.56
2023-02-18T19:07:32.256Z,99242.06
2023-02-18T19:10:36.417Z,99239.41
2023-02-18T19:13:37.922Z,99244.59
2023-02-18T19:16:40.470Z,99245.50
2023-02-18T19:19:42.186Z,99241.09
2023-02-18T19:22:43.654Z,99238.50
2023-02-18T19:25:45.155Z,99236.66
2023-02-18T19:28:46.620Z,99231.50
2023-02-18T19:31:49.661Z,99235.03
2023-02-18T19:34:51.257Z,99227.97
2023-02-18T19:37:52.760Z,99219.19
2023-02-18T19:40:55.385Z,99219.22
2023-02-18T19:43:56.864Z,99223.56
2023-02-18T19:46:59.003Z,99224.44
2023-02-18T19:50:00.866Z,99227.06
2023-02-18T19:53:02.322Z,99221.84
2023-02-18T19:56:07.245Z,99222.66
2023-02-18T19:59:08.711Z,99226.16
2023-02-18T20:02:28.488Z,99226.13
2023-02-18T20:05:29.921Z,99214.81
2023-02-18T20:08:31.452Z,99227.91
2023-02-18T20:11:32.921Z,99225.31
2023-02-18T20:14:34.443Z,99221.72
2023-02-18T20:17:37.367Z,99224.34
2023-02-18T20:20:38.839Z,99217.34
2023-02-18T20:23:40.728Z,99222.56
2023-02-18T20:26:42.223Z,99217.28
2023-02-18T20:29:43.735Z,99220.00
2023-02-18T20:32:45.236Z,99222.53
2023-02-18T20:35:55.429Z,99216.44
2023-02-18T20:39:00.506Z,99220.81
2023-02-18T20:42:15.892Z,99207.78
2023-02-18T20:45:18.064Z,99218.22
2023-02-18T20:48:19.553Z,99212.09
2023-02-18T20:51:21.342Z,99213.88
2023-02-18T20:54:22.853Z,99205.09
2023-02-18T20:57:24.303Z,99206.88
2023-02-18T21:00:25.745Z,99204.19
2023-02-18T21:03:27.282Z,99199.78
2023-02-18T21:06:29.333Z,99198.16
2023-02-18T21:09:30.808Z,99197.28
2023-02-18T21:12:32.305Z,99195.56
2023-02-18T21:15:36.870Z,99203.41
2023-02-18T21:18:38.373Z,99199.03
2023-02-18T21:21:40.018Z,99208.72
2023-02-18T21:24:41.457Z,99213.16
2023-02-18T21:27:42.926Z,99222.84
2023-02-18T21:30:44.706Z,99223.72
2023-02-18T21:33:46.262Z,99226.31
2023-02-18T21:36:47.729Z,99220.22
2023-02-18T21:39:49.183Z,99228.91
2023-02-18T21:42:50.659Z,99229.81
2023-02-18T21:45:52.109Z,99225.44
2023-02-18T21:49:02.767Z,99234.19
2023-02-18T21:52:10.402Z,99239.44
2023-02-18T21:55:12.272Z,99230.75
2023-02-18T21:58:13.764Z,99233.31
2023-02-18T22:01:15.353Z,99224.59
2023-02-18T22:04:16.880Z,99231.59
2023-02-18T22:07:19.194Z,99231.53
2023-02-18T22:10:20.499Z,99232.47
2023-02-18T22:13:21.960Z,99229.00
2023-02-18T22:16:23.576Z,99236.81
2023-02-18T22:19:25.128Z,99231.59
2023-02-18T22:22:26.634Z,99228.97
2023-02-18T22:25:28.086Z,99224.59
2023-02-18T22:28:29.558Z,99225.44
2023-02-18T22:31:31.588Z,99221.97
2023-02-18T22:34:33.146Z,99208.88
2023-02-18T22:37:35.428Z,99213.28
2023-02-18T22:40:36.893Z,99213.22
2023-02-18T22:43:38.359Z,99201.03
2023-02-18T22:46:39.873Z,99204.53
2023-02-18T22:49:41.341Z,99212.34
2023-02-18T22:52:42.838Z,99199.25
2023-02-18T22:55:44.294Z,99188.84
2023-02-18T22:58:46.932Z,99194.03
2023-02-18T23:01:49.490Z,99182.66
2023-02-18T23:04:51.389Z,99189.66
2023-02-18T23:07:52.845Z,99190.50
2023-02-18T23:11:01.167Z,99202.69
2023-02-18T23:14:31.897Z,99192.22
2023-02-18T23:17:33.395Z,99188.72
2023-02-18T23:20:54.086Z,99200.91
2023-02-18T23:23:55.821Z,99188.72
2023-02-18T23:26:57.282Z,99184.38
2023-02-18T23:29:58.781Z,99189.59
2023-02-18T23:33:00.284Z,99179.13
2023-02-18T23:36:09.441Z,99172.16
2023-02-18T23:39:11.883Z,99176.53
2023-02-18T23:42:14.194Z,99184.34
2023-02-18T23:45:15.535Z,99179.16
2023-02-18T23:48:17.125Z,99183.44
2023-02-18T23:51:20.418Z,99192.16
2023-02-18T23:54:22.149Z,99186.97
2023-02-18T23:57:23.633Z,99179.94
